Time;durP1;ratioP1;P1;durP2;ratioP2;P2;SDS_P1;SDS_P2;PMS_P1;PMS_P2;Temp;Humidity;BMP_temperature;BMP_pressure;BME280_temperature;BME280_humidity;BME280_pressure;Samples;Min_cycle;Max_cycle;Signal;HPM_P1;HPM_P2
2022/04/10 00:01:55;;;;;;;19.70;3.07;;;;;;;2.45;100.00;100502.69;5003085;28;20281;-85
2022/04/10 00:04:22;;;;;;;12.53;3.20;;;;;;;2.59;100.00;100514.84;5022549;28;20031;-85
2022/04/10 00:06:48;;;;;;;17.55;3.20;;;;;;;2.61;100.00;100520.84;5006030;28;20029;-85
2022/04/10 00:09:13;;;;;;;14.27;2.63;;;;;;;2.59;100.00;100506.94;5010205;28;20029;-85
2022/04/10 00:11:39;;;;;;;21.83;3.70;;;;;;;2.53;100.00;100511.72;5005136;28;20155;-85
2022/04/10 00:14:05;;;;;;;14.75;2.67;;;;;;;2.50;100.00;100511.94;5005325;28;20489;-86
2022/04/10 00:16:30;;;;;;;17.98;3.78;;;;;;;2.43;100.00;100504.63;5031751;28;20048;-86
2022/04/10 00:19:01;;;;;;;20.23;3.50;;;;;;;2.38;100.00;100510.22;4997346;28;20497;-85
2022/04/10 00:21:27;;;;;;;15.77;3.75;;;;;;;2.32;100.00;100518.63;5005074;28;20040;-85
2022/04/10 00:23:52;;;;;;;11.02;2.53;;;;;;;2.37;100.00;100513.84;5002661;28;20407;-86
2022/04/10 00:26:18;;;;;;;9.60;2.50;;;;;;;2.36;100.00;100519.22;5013843;28;20041;-86
2022/04/10 00:28:43;;;;;;;18.57;3.37;;;;;;;2.37;100.00;100520.91;5022097;28;20288;-86
2022/04/10 00:31:12;;;;;;;15.73;3.93;;;;;;;2.31;100.00;100519.53;5013314;28;20030;-86
2022/04/10 00:33:38;;;;;;;17.38;4.07;;;;;;;2.38;100.00;100518.13;5025182;28;20272;-85
2022/04/10 00:36:04;;;;;;;18.93;2.57;;;;;;;2.29;100.00;100522.31;5013515;28;20042;-86
2022/04/10 00:38:29;;;;;;;13.68;3.85;;;;;;;2.25;100.00;100518.22;5005439;28;20021;-85
2022/04/10 00:40:54;;;;;;;11.18;3.30;;;;;;;2.28;100.00;100518.00;5021580;28;20114;-86
2022/04/10 00:43:20;;;;;;;16.67;2.77;;;;;;;2.23;100.00;100514.88;5013298;28;20048;-86
2022/04/10 00:45:45;;;;;;;17.67;3.03;;;;;;;2.25;100.00;100522.66;5004995;28;20056;-86
2022/04/10 00:48:11;;;;;;;13.35;4.38;;;;;;;2.21;100.00;100521.19;5005047;28;20587;-85
2022/04/10 00:50:36;;;;;;;10.90;2.63;;;;;;;2.16;100.00;100512.81;5029208;28;20025;-86
2022/04/10 00:53:02;;;;;;;15.75;2.58;;;;;;;2.23;100.00;100514.03;5004513;28;20026;-86
2022/04/10 00:55:28;;;;;;;9.50;1.93;;;;;;;2.13;100.00;100510.38;5021418;28;20386;-86
2022/04/10 00:57:54;;;;;;;18.60;1.85;;;;;;;2.11;100.00;100513.97;5021312;28;20280;-86
2022/04/10 01:00:19;;;;;;;6.18;1.50;;;;;;;2.12;100.00;100509.53;5021161;28;20025;-86
2022/04/10 01:02:45;;;;;;;12.10;2.08;;;;;;;2.03;100.00;100502.31;5012518;28;20250;-86
2022/04/10 01:05:11;;;;;;;7.10;1.27;;;;;;;2.06;100.00;100502.94;5012565;28;20032;-86
2022/04/10 01:07:36;;;;;;;10.55;2.17;;;;;;;1.99;100.00;100504.38;4996440;28;20298;-86
2022/04/10 01:10:04;;;;;;;10.57;2.40;;;;;;;1.94;100.00;100503.00;5020849;28;20026;-86
2022/04/10 01:12:33;;;;;;;10.35;1.90;;;;;;;1.90;100.00;100508.50;5004529;23;20042;-77
2022/04/10 01:15:01;;;;;;;4.10;1.50;;;;;;;1.89;100.00;100511.22;5004751;28;20052;-77
2022/04/10 01:17:33;;;;;;;13.35;1.98;;;;;;;1.88;100.00;100514.84;5003575;28;20041;-78
2022/04/10 01:19:59;;;;;;;;;;;;;;;1.93;100.00;100517.13;5019127;28;20041;-77
2022/04/10 01:22:33;;;;;;;7.65;1.00;;;;;;;1.91;100.00;100519.88;5003945;28;19917;-78
2022/04/10 01:25:04;;;;;;;5.88;1.38;;;;;;;2.01;100.00;100526.13;5004488;28;20356;-78
2022/04/10 01:27:49;;;;;;;7.97;1.40;;;;;;;1.94;100.00;100524.91;4992149;28;20025;-76
2022/04/10 01:30:19;;;;;;;12.30;2.25;;;;;;;1.92;100.00;100533.88;4988701;28;20045;-77
2022/04/10 01:32:46;;;;;;;5.80;1.98;;;;;;;1.94;100.00;100524.91;4987984;28;20038;-77
2022/04/10 01:35:11;;;;;;;15.88;1.92;;;;;;;1.97;100.00;100534.41;5004656;28;20087;-77
2022/04/10 01:37:38;;;;;;;;;;;;;;;1.98;100.00;100536.91;4988482;28;20048;-78
2022/04/10 01:40:07;;;;;;;16.00;3.45;;;;;;;1.95;100.00;100542.41;5004629;28;20044;-77
2022/04/10 01:42:33;;;;;;;7.50;2.28;;;;;;;1.94;100.00;100545.97;5005341;28;20044;-78
2022/04/10 01:44:58;;;;;;;10.68;2.30;;;;;;;1.91;100.00;100540.94;4993652;28;20026;-77
2022/04/10 01:47:24;;;;;;;10.30;1.75;;;;;;;1.89;100.00;100542.84;4987982;28;20495;-78
2022/04/10 01:49:49;;;;;;;8.60;2.37;;;;;;;1.88;100.00;100538.53;4996872;28;20390;-77
2022/04/10 01:52:14;;;;;;;12.93;2.33;;;;;;;1.83;100.00;100556.47;4987451;28;20065;-77
2022/04/10 01:54:41;;;;;;;17.25;3.03;;;;;;;1.83;100.00;100553.81;5003967;28;20553;-77
2022/04/10 01:57:08;;;;;;;11.47;2.90;;;;;;;1.81;100.00;100551.28;4997015;28;20036;-77
2022/04/10 01:59:33;;;;;;;16.17;2.03;;;;;;;1.88;100.00;100562.22;5003990;28;20506;-78
2022/04/10 02:01:59;;;;;;;12.70;3.50;;;;;;;1.86;100.00;100564.97;5003799;28;20025;-78
2022/04/10 02:04:26;;;;;;;17.48;3.65;;;;;;;1.82;100.00;100563.50;4987915;28;20300;-77
2022/04/10 02:06:51;;;;;;;16.60;2.57;;;;;;;1.82;100.00;100565.28;4987777;28;20439;-77
2022/04/10 02:09:18;;;;;;;9.52;2.22;;;;;;;1.78;100.00;100571.72;4987687;28;20319;-77
2022/04/10 02:11:44;;;;;;;14.48;3.58;;;;;;;1.80;100.00;100569.81;5003718;28;20349;-77
2022/04/10 02:14:10;;;;;;;15.95;2.60;;;;;;;1.90;100.00;100584.03;5004765;28;20038;-78
2022/04/10 02:16:36;;;;;;;13.98;2.78;;;;;;;2.00;100.00;100578.94;4986410;28;20048;-77
2022/04/10 02:19:02;;;;;;;18.17;2.90;;;;;;;2.01;100.00;100577.97;5009906;28;20038;-78
2022/04/10 02:21:27;;;;;;;16.30;3.03;;;;;;;2.01;100.00;100576.16;5004917;28;20075;-78
2022/04/10 02:23:53;;;;;;;12.87;2.40;;;;;;;2.08;100.00;100580.06;5000537;28;20042;-78
2022/04/10 02:26:18;;;;;;;17.50;2.75;;;;;;;2.11;100.00;100579.81;5004003;28;20026;-78
2022/04/10 02:28:43;;;;;;;43.10;4.13;;;;;;;2.02;100.00;100569.97;5003935;28;20040;-77
2022/04/10 02:31:09;;;;;;;12.03;2.87;;;;;;;2.03;100.00;100570.78;5003060;28;20037;-78
2022/04/10 02:33:35;;;;;;;11.73;3.67;;;;;;;2.02;100.00;100558.59;5003694;28;20506;-77
2022/04/10 02:36:01;;;;;;;23.35;5.07;;;;;;;2.00;100.00;100552.59;4996559;28;20038;-78
2022/04/10 02:38:28;;;;;;;9.30;2.67;;;;;;;1.99;100.00;100558.78;5003781;28;20026;-78
2022/04/10 02:40:53;;;;;;;16.73;2.72;;;;;;;1.96;100.00;100554.59;4996373;28;20079;-77
2022/04/10 02:43:19;;;;;;;20.88;2.35;;;;;;;1.95;100.00;100546.81;5003592;28;20091;-77
2022/04/10 02:45:46;;;;;;;14.35;3.67;;;;;;;1.96;100.00;100540.59;5003722;28;20033;-78
2022/04/10 02:48:12;;;;;;;15.15;3.08;;;;;;;1.96;100.00;100543.22;5003605;28;20589;-78
2022/04/10 02:50:38;;;;;;;28.80;4.18;;;;;;;1.92;100.00;100536.50;4987101;28;20411;-77
2022/04/10 02:53:05;;;;;;;11.30;2.70;;;;;;;1.86;100.00;100536.00;4996041;28;20034;-77
2022/04/10 02:55:30;;;;;;;14.25;2.30;;;;;;;1.84;100.00;100534.44;5003640;28;20468;-76
2022/04/10 02:57:56;;;;;;;;;;;;;;;1.83;100.00;100530.13;4996948;28;20512;-78
2022/04/10 03:00:22;;;;;;;12.70;2.67;;;;;;;1.79;100.00;100533.94;5003263;28;19967;-78
2022/04/10 03:02:48;;;;;;;11.05;2.00;;;;;;;1.65;100.00;100530.50;4986991;28;20121;-78
2022/04/10 03:05:15;;;;;;;17.00;3.53;;;;;;;1.65;100.00;100534.94;5003433;28;20025;-77
2022/04/10 03:07:42;;;;;;;12.15;3.33;;;;;;;1.65;100.00;100548.91;4987147;28;20502;-77
2022/04/10 03:10:09;;;;;;;9.68;2.40;;;;;;;1.67;100.00;100552.28;5003586;28;20036;-78
2022/04/10 03:12:35;;;;;;;14.70;2.85;;;;;;;1.58;100.00;100550.31;4986499;28;20033;-77
2022/04/10 03:15:02;;;;;;;16.58;3.05;;;;;;;1.59;100.00;100549.38;5006009;28;20042;-76
2022/04/10 03:17:28;;;;;;;14.68;4.15;;;;;;;1.56;100.00;100556.63;4990803;28;20112;-77
2022/04/10 03:19:54;;;;;;;13.43;3.85;;;;;;;1.55;100.00;100555.81;4990732;28;20108;-77
2022/04/10 03:22:19;;;;;;;19.02;3.05;;;;;;;1.56;100.00;100578.53;4990345;28;20589;-77
2022/04/10 03:24:46;;;;;;;12.85;2.25;;;;;;;1.57;100.00;100564.44;5006744;28;20458;-77
2022/04/10 03:27:12;;;;;;;9.85;2.20;;;;;;;1.48;100.00;100565.06;5006334;28;20438;-77
2022/04/10 03:29:39;;;;;;;;;;;;;;;1.45;100.00;100581.06;4991071;28;20030;-78
2022/04/10 03:32:05;;;;;;;13.73;3.25;;;;;;;1.44;100.00;100577.59;5006407;28;20293;-77
2022/04/10 03:34:30;;;;;;;17.58;4.60;;;;;;;1.40;100.00;100577.91;4990304;28;20033;-76
2022/04/10 03:36:56;;;;;;;12.20;2.67;;;;;;;1.35;100.00;100580.88;5006772;28;20038;-77
2022/04/10 03:39:22;;;;;;;;;;;;;;;1.38;100.00;100585.06;4990740;28;20053;-78
2022/04/10 03:41:48;;;;;;;16.17;2.80;;;;;;;1.28;100.00;100576.97;4998568;28;20002;-77
2022/04/10 03:44:14;;;;;;;15.52;4.63;;;;;;;1.32;100.00;100586.34;5006978;28;20537;-77
2022/04/10 03:46:39;;;;;;;13.75;3.20;;;;;;;1.30;100.00;100584.78;4990084;28;20029;-77
2022/04/10 03:49:05;;;;;;;13.82;2.78;;;;;;;1.25;100.00;100593.00;4989855;28;20084;-78
2022/04/10 03:51:30;;;;;;;11.00;3.37;;;;;;;1.16;100.00;100586.56;4989923;28;20168;-76
2022/04/10 03:53:55;;;;;;;14.88;3.80;;;;;;;1.21;100.00;100600.22;5006451;28;20041;-77
2022/04/10 03:56:21;;;;;;;16.20;4.83;;;;;;;1.24;100.00;100604.44;4989929;28;20026;-77
2022/04/10 03:58:46;;;;;;;10.88;2.38;;;;;;;1.29;100.00;100610.25;4989991;28;20037;-77
2022/04/10 04:01:13;;;;;;;15.27;4.13;;;;;;;1.25;100.00;100603.50;4986219;28;20111;-77
2022/04/10 04:03:38;;;;;;;18.38;3.35;;;;;;;1.19;100.00;100615.28;5005772;28;20030;-77
2022/04/10 04:06:06;;;;;;;17.13;4.05;;;;;;;1.21;100.00;100613.38;5000723;28;20491;-77
2022/04/10 04:08:32;;;;;;;15.27;3.05;;;;;;;1.16;100.00;100612.88;4990521;28;20030;-78
2022/04/10 04:10:58;;;;;;;12.38;3.05;;;;;;;1.18;100.00;100604.88;5005197;28;20044;-78
2022/04/10 04:13:24;;;;;;;20.10;2.93;;;;;;;1.22;100.00;100612.47;5005842;28;20029;-77
2022/04/10 04:15:51;;;;;;;12.02;2.92;;;;;;;1.29;100.00;100614.63;5002582;28;20272;-77
2022/04/10 04:18:16;;;;;;;;;;;;;;;1.16;100.00;100619.91;4991280;28;20032;-77
2022/04/10 04:20:42;;;;;;;14.63;2.85;;;;;;;1.08;100.00;100612.56;4990536;28;19917;-76
2022/04/10 04:23:08;;;;;;;9.93;2.25;;;;;;;1.10;100.00;100615.94;4989851;28;20126;-76
2022/04/10 04:25:34;;;;;;;15.63;3.30;;;;;;;1.08;100.00;100620.44;4989708;28;20029;-77
2022/04/10 04:28:00;;;;;;;17.55;4.95;;;;;;;1.04;100.00;100613.72;5006785;28;20018;-78
2022/04/10 04:30:28;;;;;;;16.02;2.30;;;;;;;1.19;100.00;100628.44;5006935;28;20127;-77
2022/04/10 04:32:58;;;;;;;20.23;3.97;;;;;;;1.22;100.00;100633.50;4990993;28;20029;-77
2022/04/10 04:35:24;;;;;;;14.52;2.53;;;;;;;1.25;100.00;100643.78;4990918;28;20029;-76
2022/04/10 04:37:49;;;;;;;17.88;2.97;;;;;;;1.25;100.00;100642.97;5006991;28;20232;-78
2022/04/10 04:40:19;;;;;;;18.92;3.83;;;;;;;1.29;100.00;100640.94;4999160;28;20030;-77
2022/04/10 04:42:45;;;;;;;8.75;2.67;;;;;;;1.26;100.00;100640.25;4990198;28;20111;-77
2022/04/10 04:45:12;;;;;;;17.92;2.67;;;;;;;1.30;100.00;100646.09;4989727;28;20770;-77
2022/04/10 04:47:45;;;;;;;15.20;2.67;;;;;;;1.20;100.00;100645.91;4991569;28;20384;-77
2022/04/10 04:50:10;;;;;;;17.55;2.72;;;;;;;1.32;100.00;100660.00;4990193;28;20030;-77
2022/04/10 04:52:40;;;;;;;13.63;3.08;;;;;;;1.30;100.00;100663.69;5006486;28;20029;-77
2022/04/10 04:55:07;;;;;;;20.33;3.00;;;;;;;1.32;100.00;100661.81;4990626;28;20037;-77
2022/04/10 04:57:33;;;;;;;;;;;;;;;1.32;100.00;100661.81;4990912;28;20026;-77
2022/04/10 04:59:58;;;;;;;19.67;2.53;;;;;;;1.33;100.00;100671.34;5006265;28;19913;-78
2022/04/10 05:02:24;;;;;;;17.08;3.97;;;;;;;1.38;100.00;100674.50;4989975;28;20046;-77
2022/04/10 05:04:52;;;;;;;16.02;2.47;;;;;;;1.42;100.00;100671.56;4990390;28;20038;-77
2022/04/10 05:07:18;;;;;;;10.57;3.30;;;;;;;1.37;100.00;100673.69;5006521;28;20091;-76
2022/04/10 05:09:44;;;;;;;15.65;3.17;;;;;;;1.42;100.00;100682.09;5006265;28;20192;-77
2022/04/10 05:12:10;;;;;;;15.30;3.30;;;;;;;1.44;100.00;100684.63;4989618;28;20503;-78
2022/04/10 05:14:36;;;;;;;;;;;;;;;1.51;100.00;100685.88;5006534;28;20140;-77
2022/04/10 05:17:02;;;;;;;10.38;3.22;;;;;;;1.59;100.00;100686.22;5003871;28;20059;-77
2022/04/10 05:19:28;;;;;;;17.13;2.88;;;;;;;1.54;100.00;100683.03;4989811;28;20475;-77
2022/04/10 05:21:54;;;;;;;10.57;2.63;;;;;;;1.58;100.00;100684.50;4989114;28;20037;-77
2022/04/10 05:24:19;;;;;;;10.55;2.97;;;;;;;1.63;100.00;100687.66;5004752;28;20030;-77
2022/04/10 05:26:46;;;;;;;13.13;2.72;;;;;;;1.71;100.00;100686.28;4988424;28;20034;-77
2022/04/10 05:29:12;;;;;;;12.10;3.20;;;;;;;1.77;100.00;100686.69;5003912;28;20449;-76
2022/04/10 05:31:38;;;;;;;18.00;2.78;;;;;;;1.79;100.00;100686.59;5004297;28;20022;-76
2022/04/10 05:34:03;;;;;;;33.03;5.05;;;;;;;2.01;100.00;100692.03;4997326;28;20069;-76
2022/04/10 05:36:31;;;;;;;9.10;2.30;;;;;;;2.28;100.00;100694.50;4989034;28;20130;-76
2022/04/10 05:38:56;;;;;;;14.83;3.83;;;;;;;2.26;100.00;100685.84;4989338;28;20259;-77
2022/04/10 05:41:24;;;;;;;14.25;2.88;;;;;;;2.25;100.00;100691.25;4988342;28;20777;-77
2022/04/10 05:43:54;;;;;;;10.00;2.00;;;;;;;2.31;100.00;100701.34;4989735;28;20060;-77
2022/04/10 05:46:21;;;;;;;;;;;;;;;2.35;100.00;100694.91;5005884;28;20069;-76
2022/04/10 05:48:51;;;;;;;10.23;2.72;;;;;;;2.35;100.00;100687.00;5001868;28;19920;-77
2022/04/10 05:51:17;;;;;;;9.95;2.92;;;;;;;2.81;100.00;100695.94;5005003;28;20038;-76
2022/04/10 05:53:43;;;;;;;8.50;3.08;;;;;;;3.72;100.00;100703.13;4989261;28;20041;-77
2022/04/10 05:56:09;;;;;;;11.60;2.67;;;;;;;4.31;100.00;100687.00;4989095;28;20072;-77
2022/04/10 05:58:44;;;;;;;13.50;2.28;;;;;;;5.00;100.00;100662.81;4989963;28;20025;-76
2022/04/10 06:01:10;;;;;;;17.35;3.95;;;;;;;5.58;100.00;100635.84;5005317;28;20480;-78
2022/04/10 06:03:36;;;;;;;18.73;3.05;;;;;;;6.15;100.00;100591.13;5005321;28;20049;-77
2022/04/10 06:06:04;;;;;;;11.82;2.28;;;;;;;6.45;100.00;100545.09;4989381;28;20053;-77
2022/04/10 06:08:39;;;;;;;11.25;1.90;;;;;;;6.02;100.00;100458.06;5005598;28;20022;-77
2022/04/10 06:11:04;;;;;;;8.73;2.50;;;;;;;6.39;99.98;100447.53;4989259;28;20038;-77
2022/04/10 06:13:30;;;;;;;12.07;2.85;;;;;;;6.95;96.10;100435.19;4997593;28;20048;-77
2022/04/10 06:16:00;;;;;;;11.88;2.65;;;;;;;7.08;90.82;100366.69;5004904;28;20029;-78
2022/04/10 06:18:26;;;;;;;12.85;2.67;;;;;;;7.01;89.93;100380.72;4988209;28;20025;-77
2022/04/10 06:20:53;;;;;;;10.32;2.35;;;;;;;7.17;86.96;100338.41;4997387;28;20072;-77
2022/04/10 06:23:21;;;;;;;11.48;2.20;;;;;;;7.39;85.16;100334.47;4988334;28;20403;-77
2022/04/10 06:25:50;;;;;;;12.98;2.20;;;;;;;7.56;83.05;100322.16;4988235;28;20105;-76
2022/04/10 06:28:15;;;;;;;13.88;2.70;;;;;;;7.56;81.73;100303.56;5000408;28;20073;-77
2022/04/10 06:30:45;;;;;;;13.43;2.78;;;;;;;7.44;80.88;100283.53;4988132;28;20034;-77
2022/04/10 06:33:14;;;;;;;8.77;2.10;;;;;;;7.62;80.80;100337.50;4988306;28;20026;-77
2022/04/10 06:35:42;;;;;;;10.43;2.08;;;;;;;7.65;78.70;100273.41;4988724;28;20030;-77
2022/04/10 06:38:08;;;;;;;9.45;2.42;;;;;;;7.13;79.18;100258.22;5004764;28;20032;-77
2022/04/10 06:40:34;;;;;;;18.88;2.33;;;;;;;7.22;81.48;100372.47;4987689;28;20022;-77
2022/04/10 06:43:00;;;;;;;9.43;2.10;;;;;;;7.40;79.81;100333.50;5004303;28;20038;-76
2022/04/10 06:45:51;;;;;;;9.93;1.90;;;;;;;6.79;80.66;100318.22;5003662;28;20040;-77
2022/04/10 06:48:32;;;;;;;14.65;2.58;;;;;;;6.90;81.19;100371.13;5005098;28;20030;-77
2022/04/10 06:50:57;;;;;;;13.57;2.63;;;;;;;5.98;84.04;100361.25;5001319;28;20034;-78
2022/04/10 06:53:27;;;;;;;15.38;2.30;;;;;;;5.70;88.34;100459.13;4993011;28;20025;-76
2022/04/10 06:55:53;;;;;;;7.73;1.90;;;;;;;5.60;90.22;100496.19;5001860;28;20038;-77
2022/04/10 06:58:22;;;;;;;17.15;4.50;;;;;;;5.79;91.98;100542.22;4992704;28;20021;-77
2022/04/10 07:00:49;;;;;;;7.40;2.53;;;;;;;5.42;92.73;100532.22;4992004;28;20520;-77
2022/04/10 07:03:15;;;;;;;12.38;3.00;;;;;;;5.19;94.85;100566.81;4998352;28;20030;-77
2022/04/10 07:05:41;;;;;;;12.18;2.95;;;;;;;5.44;94.96;100584.06;5007383;28;20207;-77
2022/04/10 07:08:14;;;;;;;11.40;2.22;;;;;;;6.17;94.73;100633.41;5000655;28;20081;-77
2022/04/10 07:10:39;;;;;;;12.25;2.17;;;;;;;6.65;91.01;100572.44;4991957;28;20038;-77
2022/04/10 07:13:05;;;;;;;10.03;2.83;;;;;;;5.72;88.94;100458.00;5008392;28;20037;-77
2022/04/10 07:15:31;;;;;;;9.88;2.33;;;;;;;5.65;88.57;100462.16;4992381;28;20922;-77
2022/04/10 07:17:58;;;;;;;18.45;3.03;;;;;;;5.61;90.01;100497.00;5008738;28;20045;-78
2022/04/10 07:20:25;;;;;;;7.97;2.28;;;;;;;5.47;91.23;100522.06;5008045;28;20065;-77
2022/04/10 07:25:35;;;;;;;9.70;1.95;;;;;;;5.68;89.52;100541.34;5008372;28;20065;-77
2022/04/10 07:28:01;;;;;;;10.90;2.77;;;;;;;5.70;87.44;100485.59;5007613;28;20060;-78
2022/04/10 07:30:37;;;;;;;7.18;1.92;;;;;;;6.43;84.13;100456.88;4993298;28;20045;-77
2022/04/10 07:33:08;;;;;;;9.93;1.90;;;;;;;5.54;83.55;100360.84;5001747;28;20146;-77
2022/04/10 07:35:35;;;;;;;7.03;1.90;;;;;;;5.57;83.04;100392.31;4992327;28;20037;-77
2022/04/10 07:38:06;;;;;;;8.48;2.45;;;;;;;6.06;80.72;100385.22;5007994;28;20501;-77
2022/04/10 07:40:33;;;;;;;6.70;2.30;;;;;;;6.42;78.82;100386.25;4991893;28;20030;-77
2022/04/10 07:42:59;;;;;;;7.90;1.95;;;;;;;6.99;78.75;100449.84;4991746;28;20061;-78
2022/04/10 07:48:34;;;;;;;9.40;3.88;;;;;;;5.77;81.09;100386.06;5008010;28;20491;-78
2022/04/10 07:51:00;;;;;;;;;;;;;;;5.71;82.24;100434.28;4991309;28;20030;-78
2022/04/10 07:53:40;;;;;;;8.20;1.42;;;;;;;6.24;82.39;100523.19;4993580;28;19996;-77
2022/04/10 07:56:06;;;;;;;9.80;1.50;;;;;;;6.61;79.11;100448.19;5001968;28;20247;-78
2022/04/10 07:58:32;;;;;;;8.43;1.98;;;;;;;6.22;79.21;100417.28;4995388;28;20033;-78
2022/04/10 08:01:04;;;;;;;10.27;2.10;;;;;;;6.56;77.96;100432.69;5005273;28;20040;-78
2022/04/10 08:03:29;;;;;;;8.20;2.07;;;;;;;6.09;78.06;100364.56;4990713;28;20399;-77
2022/04/10 08:06:13;;;;;;;7.97;2.65;;;;;;;6.27;77.16;100372.59;5007610;28;20341;-77
2022/04/10 08:08:41;;;;;;;6.57;1.70;;;;;;;6.54;77.12;100424.06;4991230;28;20041;-77
2022/04/10 08:11:07;;;;;;;19.60;2.37;;;;;;;6.95;75.72;100417.47;5006865;28;20605;-78
2022/04/10 08:13:33;;;;;;;11.30;1.77;;;;;;;7.27;72.53;100314.44;4990682;28;20463;-78
2022/04/10 08:15:59;;;;;;;12.23;1.95;;;;;;;7.64;74.13;100441.81;4999866;28;20034;-78
2022/04/10 08:18:24;;;;;;;5.90;1.52;;;;;;;7.37;71.35;100264.72;5006941;28;20101;-77
2022/04/10 08:20:51;;;;;;;6.37;2.07;;;;;;;7.74;71.46;100377.94;5006405;28;20045;-78
2022/04/10 08:23:17;;;;;;;14.55;2.70;;;;;;;8.32;70.68;100417.28;5007107;28;20435;-78
2022/04/10 08:25:43;;;;;;;10.40;2.33;;;;;;;8.75;67.65;100340.19;4990443;28;20045;-78
2022/04/10 08:28:08;;;;;;;7.72;2.97;;;;;;;8.83;65.92;100287.84;5005862;28;20029;-77
2022/04/10 08:30:34;;;;;;;11.90;2.00;;;;;;;7.87;64.55;100090.53;5007372;28;20088;-78
2022/04/10 08:33:00;;;;;;;11.07;2.28;;;;;;;8.00;65.73;100186.56;5006643;28;20402;-78
2022/04/10 08:35:25;;;;;;;19.90;4.07;;;;;;;8.52;65.49;100286.72;4990280;28;20029;-78
2022/04/10 08:37:51;;;;;;;9.27;3.27;;;;;;;7.84;65.39;100192.63;4999233;28;20429;-77
2022/04/10 08:40:17;;;;;;;10.65;1.88;;;;;;;8.32;66.50;100328.69;4990288;28;20029;-78
2022/04/10 08:42:42;;;;;;;6.03;1.70;;;;;;;8.14;66.11;100252.44;4989460;28;20034;-78
2022/04/10 08:45:09;;;;;;;14.35;2.40;;;;;;;8.14;67.09;100331.38;4990013;28;20030;-78
2022/04/10 08:47:34;;;;;;;;;;;;;;;8.28;65.38;100264.31;4988952;28;20509;-78
2022/04/10 08:50:00;;;;;;;;;;;;;;;8.77;63.57;100259.19;5004483;28;19920;-78
2022/04/10 08:52:26;;;;;;;9.93;1.92;;;;;;;8.34;62.98;100157.28;4989387;28;20276;-78
2022/04/10 08:54:51;;;;;;;15.77;1.97;;;;;;;9.17;62.95;100313.53;5005867;28;20038;-78
2022/04/10 08:57:17;;;;;;;8.55;2.28;;;;;;;9.14;61.31;100210.00;4989314;28;20462;-78
2022/04/10 08:59:43;;;;;;;13.10;2.38;;;;;;;9.03;59.76;100109.97;4989306;28;20026;-78
2022/04/10 09:02:10;;;;;;;8.65;2.95;;;;;;;9.91;60.72;100300.22;4998233;28;20038;-78
2022/04/10 09:04:35;;;;;;;10.60;2.35;;;;;;;10.21;59.32;100257.78;4989089;28;20115;-78
2022/04/10 09:07:10;;;;;;;8.53;2.37;;;;;;;9.82;59.94;100187.41;4998208;28;20578;-78
2022/04/10 09:09:41;;;;;;;7.85;1.63;;;;;;;9.72;59.96;100184.94;5005088;28;20711;-78
2022/04/10 09:12:07;;;;;;;14.65;2.50;;;;;;;9.33;61.10;100178.69;5004032;28;20037;-79
2022/04/10 09:14:38;;;;;;;9.88;2.45;;;;;;;8.63;61.99;100121.44;4988817;28;20108;-77
2022/04/10 09:17:28;;;;;;;13.05;2.35;;;;;;;7.72;65.71;100196.56;4998821;28;20549;-78
2022/04/10 09:19:56;;;;;;;8.40;2.17;;;;;;;7.89;67.37;100339.22;4988866;28;20502;-78
2022/04/10 09:22:29;;;;;;;12.30;3.17;;;;;;;7.44;67.09;100236.56;4988673;28;20026;-78
2022/04/10 09:25:19;;;;;;;6.47;1.63;;;;;;;7.70;67.82;100326.09;5003962;28;20541;-78
2022/04/10 09:27:46;;;;;;;9.23;1.85;;;;;;;7.53;66.41;100237.47;4991571;28;20045;-78
2022/04/10 09:30:17;;;;;;;11.60;2.55;;;;;;;6.86;67.74;100214.03;4990009;28;20029;-78
2022/04/10 09:32:48;;;;;;;13.38;1.90;;;;;;;5.99;72.71;100320.50;5006722;28;20084;-77
2022/04/10 09:35:16;;;;;;;9.45;1.67;;;;;;;5.25;81.99;100539.00;4990405;28;20025;-78
2022/04/10 09:37:55;;;;;;;8.75;1.25;;;;;;;4.27;90.65;100680.28;4991203;28;20026;-78
2022/04/10 09:40:33;;;;;;;7.38;1.27;;;;;;;3.81;100.00;100798.31;4986384;28;20026;-78
2022/04/10 09:43:04;;;;;;;4.40;1.00;;;;;;;3.97;100.00;100889.59;4997203;28;20490;-77
2022/04/10 09:45:31;;;;;;;2.45;0.88;;;;;;;3.76;100.00;100884.97;5007078;28;20113;-77
2022/04/10 09:47:57;;;;;;;9.52;0.95;;;;;;;3.77;100.00;100881.41;4998829;28;20034;-78
2022/04/10 09:50:32;;;;;;;8.45;1.10;;;;;;;4.55;100.00;100903.63;4990238;28;20041;-78
2022/04/10 09:53:05;;;;;;;12.25;1.67;;;;;;;5.12;100.00;100901.78;5004820;28;20042;-77
2022/04/10 09:55:35;;;;;;;8.23;1.88;;;;;;;5.28;100.00;100835.22;5006288;28;20044;-79
2022/04/10 09:58:10;;;;;;;21.00;3.60;;;;;;;6.29;100.00;100832.00;4990185;28;20038;-78
2022/04/10 10:00:43;;;;;;;12.27;1.77;;;;;;;7.33;91.61;100702.41;5005591;28;20038;-78
2022/04/10 10:03:09;;;;;;;9.30;1.88;;;;;;;7.80;83.00;100587.31;4998802;28;20501;-77
2022/04/10 10:05:35;;;;;;;8.13;2.58;;;;;;;8.08;79.27;100544.72;4989346;28;20049;-77
2022/04/10 10:08:01;;;;;;;11.68;1.80;;;;;;;8.82;73.91;100466.34;5006281;28;20117;-78
2022/04/10 10:10:31;;;;;;;17.25;2.67;;;;;;;9.12;70.64;100400.25;4989201;28;20136;-77
2022/04/10 10:13:00;;;;;;;15.25;2.03;;;;;;;9.07;68.40;100358.13;4989029;28;20053;-77
2022/04/10 10:15:26;;;;;;;7.78;2.55;;;;;;;9.26;66.66;100344.50;4988856;28;20529;-77
2022/04/10 10:17:52;;;;;;;;;;;;;;;10.07;63.89;100331.38;4998721;28;20512;-77
2022/04/10 10:20:19;;;;;;;;;;;;;;;9.87;61.79;100225.06;4988710;28;20243;-77
2022/04/10 10:22:44;;;;;;;9.02;1.58;;;;;;;10.38;60.92;100283.47;5004823;28;19917;-77
2022/04/10 10:25:24;;;;;;;8.00;2.15;;;;;;;10.77;61.49;100389.44;5001552;28;20041;-77
2022/04/10 10:28:05;;;;;;;15.23;2.00;;;;;;;9.43;60.03;100120.72;5006788;28;20029;-77
2022/04/10 10:31:08;;;;;;;7.63;1.88;;;;;;;8.78;60.88;100100.31;4991879;28;20435;-78
2022/04/10 10:33:36;;;;;;;11.23;1.55;;;;;;;8.62;63.62;100244.88;5007653;28;20422;-78
2022/04/10 10:36:07;;;;;;;6.00;1.60;;;;;;;7.26;67.59;100227.78;5008404;28;20475;-77
2022/04/10 10:38:33;;;;;;;8.77;2.05;;;;;;;6.89;71.63;100406.59;4992379;28;20124;-78
2022/04/10 10:41:11;;;;;;;7.53;1.25;;;;;;;6.12;71.71;100355.50;5000946;28;20116;-78
2022/04/10 10:43:36;;;;;;;5.85;1.48;;;;;;;5.95;71.46;100357.06;5008678;28;20376;-77
2022/04/10 10:46:02;;;;;;;9.47;0.97;;;;;;;6.18;72.60;100457.47;4993667;28;20336;-78
2022/04/10 10:48:38;;;;;;;4.43;0.95;;;;;;;6.15;72.82;100450.63;5008630;28;20038;-78
2022/04/10 10:51:10;;;;;;;5.70;0.95;;;;;;;6.22;73.71;100486.19;4991443;28;20038;-77
2022/04/10 10:53:57;;;;;;;2.83;0.85;;;;;;;6.76;74.51;100590.84;5005505;28;20037;-77
2022/04/10 10:56:30;;;;;;;12.18;2.25;;;;;;;7.85;72.50;100640.03;4988591;28;20033;-78
2022/04/10 10:59:24;;;;;;;3.65;1.08;;;;;;;9.03;67.67;100554.66;5005792;28;20041;-78
2022/04/10 11:02:07;;;;;;;12.50;1.55;;;;;;;9.40;62.39;100359.03;5005075;28;20104;-78
2022/04/10 11:04:35;;;;;;;4.03;1.17;;;;;;;9.70;61.49;100352.22;4997148;28;20569;-78
2022/04/10 11:07:19;;;;;;;5.57;1.15;;;;;;;9.66;60.16;100267.44;5001554;28;20315;-78
2022/04/10 11:10:10;;;;;;;8.75;1.55;;;;;;;9.87;58.56;100234.91;5002504;28;20495;-78
2022/04/10 11:12:50;;;;;;;7.00;1.67;;;;;;;10.70;58.21;100343.91;5007966;28;20033;-79
2022/04/10 11:15:24;;;;;;;14.93;1.77;;;;;;;11.09;56.56;100286.09;5005480;28;20096;-78
2022/04/10 11:17:51;;;;;;;5.72;1.92;;;;;;;11.12;55.85;100241.19;4993561;28;20033;-78
2022/04/10 11:20:24;;;;;;;7.57;1.70;;;;;;;10.79;56.42;100229.84;5004949;28;20025;-78
2022/04/10 11:22:52;;;;;;;8.40;1.52;;;;;;;9.63;57.98;100142.50;5009548;28;20181;-78
2022/04/10 11:25:20;;;;;;;6.45;2.03;;;;;;;9.87;59.77;100337.03;4994197;28;20094;-78
2022/04/10 11:27:56;;;;;;;6.65;1.50;;;;;;;9.55;58.79;100217.94;4983926;28;20492;-78
2022/04/10 11:30:30;;;;;;;7.20;1.67;;;;;;;9.48;59.57;100252.47;4988751;28;20038;-79
2022/04/10 11:32:58;;;;;;;7.60;1.35;;;;;;;9.76;59.72;100297.38;5006441;28;20479;-78
2022/04/10 11:35:32;;;;;;;7.10;1.33;;;;;;;9.18;58.61;100144.75;5009112;28;20486;-78
2022/04/10 11:38:00;;;;;;;8.30;1.80;;;;;;;9.05;57.19;100075.19;5000308;28;20038;-78